Lime Ridge, WI (53942)

11:01 PM CDT on September 03, 2015 (GMT -0500)
Village Hillside | | Change Station
CLOSE
Current Station
Personal Weather Station
Location: Cazenovia, WI
Elevation: 991 ft
Nearby Weather Stations

Elev 991 ft 43.52 °N, 90.19 °W | Updated 13 seconds ago

Clear
Clear
70.2 °F
Feels Like 70.2 °F
N
0.0
Wind Variable Wind from NE
Gusts 0.0 mph

Today
High -- | Low -- °F
--% Chance of Precip.
Yesterday
High -- | Low -- °F
Precip. -- in
6:26 AM 7:32 PM
Waning Gibbous, 64% visible
Pressure 29.97 in
Visibility 10.0 miles
Clouds Mostly Cloudy 3400 ft
Dew Point 69 °F
Humidity 95%
Rainfall 0.00 in
Snow Depth Not available.
UV 0.0 out of 12
Pollen 4.80 out of 12
Air Quality Not available.
Flu Activity Not available.
METAR KC35 040355Z AUTO 06003KT 10SM BKN034 21/20 A2997 RMK AO2 T02100195
Pressure 29.97 in
Visibility 10.0 miles
Clouds Mostly Cloudy 3400 ft
Dew Point 69 °F
Humidity 95%
Rainfall 0.00 in
Snow Depth Not available.
UV 0.0 out of 12
Pollen 4.80 out of 12
Air Quality Not available.
Flu Activity Not available.
METAR KC35 040355Z AUTO 06003KT 10SM BKN034 21/20 A2997 RMK AO2 T02100195

10-Day Weather Forecast

×

Almanac

Astronomy

Sep. 03, 2015 Rise Set
Actual Time
Civil Twilight
Nautical Twilight
Astronomical Twilight
Moon
Length of Visible Light
Length of Day
Tomorrow will be .
, % of the Moon is Illuminated

Today's Extremes

State Highs State Lows

Community

WunderPhotos

Upload Photos

1,852,125 photos uploaded!

WunderBlogs® & News

Nearby

Air Quality

  Air Quality AQ Index Pollutant
Not available.

Snow Depth

Station Depth Elevation

Earthquake Activity

City Distance Mag. Time & Date
Minimum magnitude displayed is 2.5.

Coastal Water Temperatures

Place Temperature

Stations

Nearby Weather Stations

Station Location Temp. Windchill Dew Point Humidity Wind Precip. Elev Updated Type